Time;durP1;ratioP1;P1;durP2;ratioP2;P2;SDS_P1;SDS_P2;PMS_P1;PMS_P2;Temp;Humidity;BMP_temperature;BMP_pressure;BME280_temperature;BME280_humidity;BME280_pressure;Samples;Min_cycle;Max_cycle;Signal;HPM_P1;HPM_P2
2021/12/11 00:01:21;;;;;;;5.63;2.20;;;;;;;;;;5089987;28;20093;-86
2021/12/11 00:03:51;;;;;;;4.32;2.95;;;;;;;;;;5090844;28;20082;-85
2021/12/11 00:06:20;;;;;;;4.55;2.17;;;;;;;;;;5090751;28;20089;-85
2021/12/11 00:08:49;;;;;;;6.03;2.15;;;;;;;;;;5087630;28;20066;-86
2021/12/11 00:11:21;;;;;;;5.72;2.33;;;;;;;;;;5089817;28;20472;-85
2021/12/11 00:13:48;;;;;;;5.82;2.28;;;;;;;;;;5087580;28;20080;-85
2021/12/11 00:16:18;;;;;;;5.07;2.28;;;;;;;;;;5089462;28;20143;-85
2021/12/11 00:18:45;;;;;;;6.68;2.55;;;;;;;;;;5087970;28;20036;-85
2021/12/11 00:21:15;;;;;;;5.45;3.05;;;;;;;;;;5089243;28;20067;-86
2021/12/11 00:23:49;;;;;;;5.78;2.10;;;;;;;;;;5087373;28;20152;-86
2021/12/11 00:26:25;;;;;;;4.82;2.17;;;;;;;;;;5084721;28;20484;-85
2021/12/11 00:28:52;;;;;;;5.38;1.92;;;;;;;;;;5089746;28;20063;-86
2021/12/11 00:31:19;;;;;;;3.72;2.22;;;;;;;;;;5090401;28;20101;-87
2021/12/11 00:33:47;;;;;;;2.95;1.95;;;;;;;;;;5088883;28;20071;-86
2021/12/11 00:36:17;;;;;;;5.55;1.80;;;;;;;;;;5088580;28;20544;-86
2021/12/11 00:38:47;;;;;;;8.18;2.20;;;;;;;;;;5088773;28;20048;-86
2021/12/11 00:41:18;;;;;;;6.50;2.10;;;;;;;;;;5089859;28;20051;-87
2021/12/11 00:43:45;;;;;;;5.82;2.33;;;;;;;;;;5088492;28;20484;-86
2021/12/11 00:46:18;;;;;;;3.35;1.83;;;;;;;;;;5097716;28;20051;-87
2021/12/11 00:48:45;;;;;;;4.80;2.20;;;;;;;;;;5094218;28;20048;-86
2021/12/11 00:51:13;;;;;;;5.13;2.20;;;;;;;;;;5092006;28;20085;-85
2021/12/11 00:53:43;;;;;;;3.78;2.00;;;;;;;;;;5093154;28;20052;-85
2021/12/11 00:56:12;;;;;;;3.67;2.55;;;;;;;;;;5097148;28;20048;-86
2021/12/11 00:58:41;;;;;;;3.40;1.55;;;;;;;;;;5096214;28;20040;-86
2021/12/11 01:01:12;;;;;;;4.15;1.65;;;;;;;;;;5096583;28;20040;-86
2021/12/11 01:03:43;;;;;;;2.47;1.50;;;;;;;;;;5100513;28;20109;-86
2021/12/11 01:06:11;;;;;;;3.45;2.10;;;;;;;;;;5097260;27;20078;-86
2021/12/11 01:08:41;;;;;;;5.60;1.90;;;;;;;;;;5092915;28;20044;-86
2021/12/11 01:11:13;;;;;;;3.83;1.73;;;;;;;;;;5094324;28;20044;-86
2021/12/11 01:13:44;;;;;;;4.97;2.10;;;;;;;;;;5093620;28;20500;-86
2021/12/11 01:16:14;;;;;;;4.63;1.48;;;;;;;;;;5094348;28;20036;-86
2021/12/11 01:18:42;;;;;;;3.95;1.42;;;;;;;;;;5093557;28;20055;-86
2021/12/11 01:21:29;;;;;;;4.30;1.70;;;;;;;;;;5092135;28;20043;-86
2021/12/11 01:24:11;;;;;;;2.17;1.50;;;;;;;;;;5098079;28;20503;-86
2021/12/11 01:26:43;;;;;;;4.90;1.67;;;;;;;;;;5092891;28;20058;-86
2021/12/11 01:29:11;;;;;;;3.83;1.95;;;;;;;;;;5092204;28;20116;-86
2021/12/11 01:31:39;;;;;;;3.47;1.90;;;;;;;;;;5093159;28;20092;-86
2021/12/11 01:34:06;;;;;;;2.83;1.30;;;;;;;;;;5097156;28;20592;-86
2021/12/11 01:36:34;;;;;;;2.20;1.50;;;;;;;;;;5092897;28;20079;-86
2021/12/11 01:39:04;;;;;;;3.70;1.75;;;;;;;;;;5095595;28;20044;-86
2021/12/11 01:41:30;;;;;;;2.67;1.52;;;;;;;;;;5095455;28;20048;-86
2021/12/11 01:44:00;;;;;;;3.15;1.20;;;;;;;;;;5096655;28;20098;-86
2021/12/11 01:46:28;;;;;;;3.58;1.60;;;;;;;;;;5086513;28;20043;-86
2021/12/11 01:48:58;;;;;;;4.45;1.40;;;;;;;;;;5095491;28;20112;-86
2021/12/11 01:51:30;;;;;;;4.68;1.60;;;;;;;;;;5099518;28;20083;-86
2021/12/11 01:53:59;;;;;;;4.47;1.73;;;;;;;;;;5092134;28;20104;-86
2021/12/11 01:56:28;;;;;;;2.80;1.63;;;;;;;;;;5094337;28;20150;-86
2021/12/11 01:59:00;;;;;;;3.90;1.55;;;;;;;;;;5093078;28;20093;-86
2021/12/11 02:01:31;;;;;;;4.88;1.58;;;;;;;;;;5093730;28;20052;-86
2021/12/11 02:03:59;;;;;;;2.78;1.58;;;;;;;;;;5091435;28;20120;-86
2021/12/11 02:06:28;;;;;;;3.17;1.40;;;;;;;;;;5094607;28;20113;-86
2021/12/11 02:08:55;;;;;;;4.50;1.50;;;;;;;;;;5092871;28;20094;-86
2021/12/11 02:11:24;;;;;;;5.90;1.88;;;;;;;;;;5098365;28;20463;-86
2021/12/11 02:13:55;;;;;;;3.67;1.55;;;;;;;;;;5083934;28;20059;-86
2021/12/11 02:16:25;;;;;;;6.43;1.60;;;;;;;;;;5094275;28;20386;-87
2021/12/11 02:18:58;;;;;;;7.32;1.85;;;;;;;;;;5097350;28;20036;-86
2021/12/11 02:21:28;;;;;;;5.18;1.60;;;;;;;;;;5104354;28;20051;-86
2021/12/11 02:23:58;;;;;;;3.13;1.60;;;;;;;;;;5100138;28;20075;-86
2021/12/11 02:26:26;;;;;;;5.25;1.60;;;;;;;;;;5101056;28;20085;-86
2021/12/11 02:28:57;;;;;;;4.00;1.80;;;;;;;;;;5094648;28;20446;-86
2021/12/11 02:31:28;;;;;;;6.45;1.85;;;;;;;;;;5100981;28;20108;-86
2021/12/11 02:33:59;;;;;;;3.75;1.67;;;;;;;;;;5098129;28;20467;-86
2021/12/11 02:36:30;;;;;;;3.50;1.77;;;;;;;;;;5098910;28;20040;-86
2021/12/11 02:39:01;;;;;;;6.15;1.58;;;;;;;;;;5096367;28;20044;-86
2021/12/11 02:41:33;;;;;;;5.80;1.70;;;;;;;;;;5098218;28;20101;-86
2021/12/11 02:44:04;;;;;;;3.30;2.25;;;;;;;;;;5102144;28;20097;-86
2021/12/11 02:46:34;;;;;;;4.18;1.90;;;;;;;;;;5094879;28;20879;-86
2021/12/11 02:49:08;;;;;;;6.32;1.88;;;;;;;;;;5096211;28;20063;-86
2021/12/11 02:51:40;;;;;;;5.82;2.17;;;;;;;;;;5096763;28;20086;-86
2021/12/11 02:54:12;;;;;;;4.18;1.55;;;;;;;;;;5097460;28;20067;-86
2021/12/11 02:56:43;;;;;;;2.08;1.52;;;;;;;;;;5097140;28;20458;-86
2021/12/11 02:59:14;;;;;;;6.50;1.92;;;;;;;;;;5099013;28;20424;-86
2021/12/11 03:01:43;;;;;;;3.40;1.98;;;;;;;;;;5098531;28;20472;-86
2021/12/11 03:04:18;;;;;;;5.07;2.13;;;;;;;;;;5101522;28;20055;-86
2021/12/11 03:06:47;;;;;;;3.72;1.75;;;;;;;;;;5097587;28;20375;-86
2021/12/11 03:09:19;;;;;;;4.22;2.08;;;;;;;;;;5097192;28;20044;-86
2021/12/11 03:11:46;;;;;;;4.35;2.25;;;;;;;;;;5099145;28;20070;-86
2021/12/11 03:14:16;;;;;;;3.28;1.70;;;;;;;;;;5097112;28;20488;-86
2021/12/11 03:16:44;;;;;;;5.35;2.10;;;;;;;;;;5097716;28;20044;-86
2021/12/11 03:19:15;;;;;;;4.97;2.28;;;;;;;;;;5097301;28;20093;-86
2021/12/11 03:21:42;;;;;;;4.28;2.33;;;;;;;;;;5098741;28;20055;-85
2021/12/11 03:24:10;;;;;;;4.15;2.38;;;;;;;;;;5094698;28;20063;-85
2021/12/11 03:26:39;;;;;;;3.70;1.75;;;;;;;;;;5109020;28;20055;-87
2021/12/11 03:29:07;;;;;;;4.03;2.03;;;;;;;;;;5109389;28;20040;-87
2021/12/11 03:31:36;;;;;;;5.35;2.70;;;;;;;;;;5111390;28;20093;-85
2021/12/11 03:34:05;;;;;;;3.58;1.90;;;;;;;;;;5098543;28;20044;-86
2021/12/11 03:36:33;;;;;;;5.18;1.95;;;;;;;;;;5096266;28;20484;-86
2021/12/11 03:39:01;;;;;;;4.28;1.92;;;;;;;;;;5099995;28;20040;-86
2021/12/11 03:41:29;;;;;;;2.95;1.75;;;;;;;;;;5097238;28;20434;-85
2021/12/11 03:43:57;;;;;;;4.30;2.10;;;;;;;;;;5094845;28;20453;-86
2021/12/11 03:46:24;;;;;;;3.85;1.90;;;;;;;;;;5094523;28;20391;-86
2021/12/11 03:48:55;;;;;;;5.25;2.72;;;;;;;;;;5099333;28;20499;-86
2021/12/11 03:51:26;;;;;;;3.35;1.92;;;;;;;;;;5094135;28;20044;-85
2021/12/11 03:53:53;;;;;;;3.53;2.03;;;;;;;;;;5097029;28;20040;-86
2021/12/11 03:56:20;;;;;;;5.32;2.00;;;;;;;;;;5093707;28;20128;-86
2021/12/11 03:58:50;;;;;;;3.65;1.50;;;;;;;;;;5098203;28;20459;-86
2021/12/11 04:01:24;;;;;;;2.80;1.52;;;;;;;;;;5089506;28;20052;-85
2021/12/11 04:03:52;;;;;;;5.63;1.75;;;;;;;;;;5096572;28;20048;-86
2021/12/11 04:06:19;;;;;;;3.53;1.98;;;;;;;;;;5095322;28;20052;-85
2021/12/11 04:08:47;;;;;;;3.78;1.85;;;;;;;;;;5095793;28;20052;-86
2021/12/11 04:11:17;;;;;;;3.45;1.70;;;;;;;;;;5091234;28;20141;-85
2021/12/11 04:13:44;;;;;;;5.07;2.40;;;;;;;;;;5099371;28;20524;-86
2021/12/11 04:16:12;;;;;;;4.07;1.88;;;;;;;;;;5090391;28;20117;-85
2021/12/11 04:18:40;;;;;;;4.47;1.92;;;;;;;;;;5095125;28;20240;-85
2021/12/11 04:21:07;;;;;;;4.13;1.90;;;;;;;;;;5095896;28;20113;-85
2021/12/11 04:23:34;;;;;;;4.72;1.85;;;;;;;;;;5099122;28;20483;-85
2021/12/11 04:26:01;;;;;;;4.50;1.40;;;;;;;;;;5094098;28;20060;-86
2021/12/11 04:28:30;;;;;;;3.90;1.70;;;;;;;;;;5096218;28;20462;-86
2021/12/11 04:31:04;;;;;;;2.60;1.40;;;;;;;;;;5096362;28;20040;-86
2021/12/11 04:33:32;;;;;;;3.47;1.48;;;;;;;;;;5093428;28;20126;-86
2021/12/11 04:36:01;;;;;;;5.20;1.77;;;;;;;;;;5094446;28;20048;-86
2021/12/11 04:38:27;;;;;;;4.18;1.30;;;;;;;;;;5107492;28;20117;-86
2021/12/11 04:40:57;;;;;;;3.03;1.73;;;;;;;;;;5095481;28;20093;-86
2021/12/11 04:43:25;;;;;;;3.40;1.70;;;;;;;;;;5093698;28;20396;-87
2021/12/11 04:45:54;;;;;;;3.95;1.60;;;;;;;;;;5094800;28;20097;-86
2021/12/11 04:48:31;;;;;;;2.92;1.40;;;;;;;;;;5095317;28;20044;-86
2021/12/11 04:51:02;;;;;;;5.53;1.70;;;;;;;;;;5094802;28;20044;-85
2021/12/11 04:53:45;;;;;;;3.25;2.00;;;;;;;;;;5098042;28;20115;-86
2021/12/11 04:56:43;;;;;;;4.70;1.58;;;;;;;;;;5094134;28;20127;-87
2021/12/11 04:59:26;;;;;;;3.63;2.00;;;;;;;;;;5094817;28;20043;-86
2021/12/11 05:02:06;;;;;;;3.30;1.52;;;;;;;;;;5090966;28;20079;-86
2021/12/11 05:04:51;;;;;;;2.33;1.70;;;;;;;;;;5094938;28;20040;-87
2021/12/11 05:07:26;;;;;;;2.35;1.42;;;;;;;;;;5092192;28;20077;-87
2021/12/11 05:10:00;;;;;;;3.25;1.48;;;;;;;;;;5095011;28;20051;-86
2021/12/11 05:12:34;;;;;;;3.35;1.65;;;;;;;;;;5093578;28;20050;-87
2021/12/11 05:15:02;;;;;;;4.32;1.67;;;;;;;;;;5096424;28;20051;-86
2021/12/11 05:17:28;;;;;;;4.78;1.83;;;;;;;;;;5095289;28;20047;-86
2021/12/11 05:19:55;;;;;;;3.13;1.50;;;;;;;;;;5093811;28;20048;-86
2021/12/11 05:22:22;;;;;;;3.15;1.75;;;;;;;;;;5099796;28;20535;-86
2021/12/11 05:24:51;;;;;;;5.80;1.63;;;;;;;;;;5096461;28;20079;-86
2021/12/11 05:27:19;;;;;;;3.38;1.50;;;;;;;;;;5097524;28;20064;-87
2021/12/11 05:29:46;;;;;;;3.42;1.73;;;;;;;;;;5092088;28;20082;-87
2021/12/11 05:32:16;;;;;;;4.47;1.80;;;;;;;;;;5087836;28;20185;-86
2021/12/11 05:34:42;;;;;;;3.95;2.33;;;;;;;;;;5081402;28;20102;-86
2021/12/11 05:37:10;;;;;;;2.90;1.67;;;;;;;;;;5092245;28;20450;-87
2021/12/11 05:39:37;;;;;;;3.78;1.95;;;;;;;;;;5094025;28;20059;-87
2021/12/11 05:42:04;;;;;;;3.72;1.88;;;;;;;;;;5089180;28;20417;-87
2021/12/11 05:44:32;;;;;;;4.60;1.90;;;;;;;;;;5091944;28;20075;-87
2021/12/11 05:46:59;;;;;;;4.60;2.00;;;;;;;;;;5090585;28;20071;-86
2021/12/11 05:49:28;;;;;;;5.70;2.30;;;;;;;;;;5092061;28;20075;-87
2021/12/11 05:51:55;;;;;;;3.67;1.60;;;;;;;;;;5096275;28;20039;-86
2021/12/11 05:54:24;;;;;;;3.30;1.85;;;;;;;;;;5090486;28;20064;-87
2021/12/11 05:56:53;;;;;;;5.07;2.38;;;;;;;;;;5088981;28;20383;-87
2021/12/11 05:59:19;;;;;;;3.88;2.25;;;;;;;;;;5082753;28;20032;-86
2021/12/11 06:01:53;;;;;;;3.20;2.22;;;;;;;;;;5091066;28;20048;-87
2021/12/11 06:04:22;;;;;;;3.65;2.38;;;;;;;;;;5089299;28;20040;-87
2021/12/11 06:06:49;;;;;;;5.35;2.05;;;;;;;;;;5090035;28;20044;-87
2021/12/11 06:09:17;;;;;;;4.75;2.17;;;;;;;;;;5092182;28;20071;-86
2021/12/11 06:11:46;;;;;;;3.85;2.35;;;;;;;;;;5085491;28;20530;-87
2021/12/11 06:14:13;;;;;;;3.25;1.90;;;;;;;;;;5091470;28;20492;-87
2021/12/11 06:16:39;;;;;;;4.38;1.75;;;;;;;;;;5078706;28;20097;-87
2021/12/11 06:19:07;;;;;;;4.05;1.90;;;;;;;;;;5085751;28;20443;-88
2021/12/11 06:21:35;;;;;;;3.80;1.67;;;;;;;;;;5092391;28;20062;-87
2021/12/11 06:24:02;;;;;;;5.20;1.40;;;;;;;;;;5085729;28;20110;-87
2021/12/11 06:26:29;;;;;;;2.70;1.45;;;;;;;;;;5085502;28;20132;-87
2021/12/11 06:28:56;;;;;;;1.90;1.20;;;;;;;;;;5091056;28;20075;-86
2021/12/11 06:31:22;;;;;;;3.03;1.20;;;;;;;;;;5092372;28;20102;-87
2021/12/11 06:33:51;;;;;;;3.85;1.40;;;;;;;;;;5090439;28;20036;-86
2021/12/11 06:36:21;;;;;;;2.13;1.02;;;;;;;;;;5091667;28;20078;-86
2021/12/11 06:38:50;;;;;;;2.30;0.80;;;;;;;;;;5092590;28;20076;-86
2021/12/11 06:41:19;;;;;;;1.95;1.00;;;;;;;;;;5091486;28;20075;-86
2021/12/11 06:43:45;;;;;;;2.47;1.00;;;;;;;;;;5089764;28;20075;-86
2021/12/11 06:46:12;;;;;;;1.88;1.50;;;;;;;;;;5090979;28;20040;-86
2021/12/11 06:48:39;;;;;;;4.20;0.98;;;;;;;;;;5086025;28;20083;-86
2021/12/11 06:51:06;;;;;;;1.27;0.88;;;;;;;;;;5088132;28;20477;-86
2021/12/11 06:53:36;;;;;;;1.88;1.10;;;;;;;;;;5086771;28;20067;-86
2021/12/11 06:56:05;;;;;;;6.15;1.70;;;;;;;;;;5085038;28;20036;-87
2021/12/11 06:58:32;;;;;;;23.98;3.92;;;;;;;;;;5090170;28;20589;-86
2021/12/11 07:00:59;;;;;;;2.58;1.33;;;;;;;;;;5091350;28;20043;-86
2021/12/11 07:03:25;;;;;;;4.07;1.50;;;;;;;;;;5090855;28;20082;-86
2021/12/11 07:05:52;;;;;;;5.60;1.50;;;;;;;;;;5088520;28;20094;-86
2021/12/11 07:08:22;;;;;;;2.25;1.25;;;;;;;;;;5090977;28;20036;-86
2021/12/11 07:10:50;;;;;;;2.10;1.10;;;;;;;;;;5095880;28;20074;-86
2021/12/11 07:13:17;;;;;;;3.13;1.33;;;;;;;;;;5095905;28;20104;-85
2021/12/11 07:15:44;;;;;;;2.40;1.20;;;;;;;;;;5096004;28;20079;-86
2021/12/11 07:18:11;;;;;;;2.40;1.23;;;;;;;;;;5094265;28;20480;-86
2021/12/11 07:20:38;;;;;;;2.17;0.93;;;;;;;;;;5096026;28;20044;-86
2021/12/11 07:23:05;;;;;;;3.88;1.33;;;;;;;;;;5093668;28;20037;-86
2021/12/11 07:25:37;;;;;;;1.90;1.10;;;;;;;;;;5087046;28;20051;-86
2021/12/11 07:28:07;;;;;;;2.45;1.48;;;;;;;;;;5094267;28;20032;-86
2021/12/11 07:30:35;;;;;;;4.53;1.40;;;;;;;;;;5094641;28;20079;-86
2021/12/11 07:33:04;;;;;;;3.05;1.70;;;;;;;;;;5094190;28;20101;-86
2021/12/11 07:35:32;;;;;;;3.35;1.65;;;;;;;;;;5095295;28;20131;-86
2021/12/11 07:37:58;;;;;;;4.60;1.90;;;;;;;;;;5095533;28;20455;-86
2021/12/11 07:40:29;;;;;;;2.53;1.50;;;;;;;;;;5095331;28;20439;-86
2021/12/11 07:42:56;;;;;;;3.20;1.58;;;;;;;;;;5094706;28;20298;-85
2021/12/11 07:45:26;;;;;;;5.70;2.10;;;;;;;;;;5089314;28;20097;-86
2021/12/11 07:47:53;;;;;;;4.20;2.28;;;;;;;;;;5092799;28;20044;-86
2021/12/11 07:50:20;;;;;;;3.47;2.22;;;;;;;;;;5091047;28;20051;-86
2021/12/11 07:52:47;;;;;;;7.63;2.50;;;;;;;;;;5101108;28;20384;-87
2021/12/11 07:55:15;;;;;;;3.72;2.20;;;;;;;;;;5092409;28;20079;-86
2021/12/11 07:57:42;;;;;;;5.97;3.35;;;;;;;;;;5095282;28;20062;-86
2021/12/11 08:00:12;;;;;;;8.43;4.07;;;;;;;;;;5096065;28;20036;-87
2021/12/11 08:02:40;;;;;;;6.32;3.47;;;;;;;;;;5092555;28;20044;-86
2021/12/11 08:05:08;;;;;;;5.88;3.15;;;;;;;;;;5095200;28;20044;-87
2021/12/11 08:07:35;;;;;;;6.68;3.80;;;;;;;;;;5094988;28;20473;-87
2021/12/11 08:10:02;;;;;;;8.98;4.00;;;;;;;;;;5095654;28;20076;-87
2021/12/11 08:12:28;;;;;;;7.22;4.30;;;;;;;;;;5096071;28;20036;-87
2021/12/11 08:14:55;;;;;;;7.50;4.15;;;;;;;;;;5093114;28;20065;-87
2021/12/11 08:17:23;;;;;;;7.43;3.80;;;;;;;;;;5097758;28;20252;-86
2021/12/11 08:19:51;;;;;;;9.82;4.78;;;;;;;;;;5091817;28;20388;-87
2021/12/11 08:22:18;;;;;;;7.45;3.80;;;;;;;;;;5088472;28;20544;-87
2021/12/11 08:24:59;;;;;;;6.50;3.35;;;;;;;;;;5088332;28;20451;-89
2021/12/11 08:27:27;;;;;;;9.15;4.90;;;;;;;;;;5089137;28;20127;-88
2021/12/11 08:29:56;;;;;;;9.88;4.88;;;;;;;;;;5094558;28;20044;-87
2021/12/11 08:32:23;;;;;;;10.95;4.10;;;;;;;;;;5096555;28;20569;-89
2021/12/11 08:34:53;;;;;;;6.20;4.25;;;;;;;;;;5104084;28;20040;-88
2021/12/11 08:37:24;;;;;;;6.57;4.38;;;;;;;;;;5102602;28;20059;-89
2021/12/11 08:39:54;;;;;;;5.45;3.17;;;;;;;;;;5097835;28;20044;-87
2021/12/11 08:42:23;;;;;;;4.97;2.97;;;;;;;;;;5097287;28;20454;-87
2021/12/11 08:44:53;;;;;;;4.65;2.92;;;;;;;;;;5097270;28;20075;-86
2021/12/11 08:47:25;;;;;;;5.53;3.38;;;;;;;;;;5095681;28;20052;-85
2021/12/11 08:49:57;;;;;;;7.45;3.28;;;;;;;;;;5085779;28;20051;-87
2021/12/11 08:52:26;;;;;;;7.25;3.50;;;;;;;;;;5094739;28;20044;-84
2021/12/11 08:54:54;;;;;;;5.20;3.08;;;;;;;;;;5091443;28;20044;-86
2021/12/11 08:57:23;;;;;;;6.43;3.85;;;;;;;;;;5102560;28;20044;-86
2021/12/11 08:59:52;;;;;;;8.63;5.00;;;;;;;;;;5095132;28;20071;-86
2021/12/11 09:02:22;;;;;;;6.78;3.95;;;;;;;;;;5090525;28;20084;-86
2021/12/11 09:04:53;;;;;;;6.45;4.07;;;;;;;;;;5089381;28;20076;-86
2021/12/11 09:07:25;;;;;;;6.07;3.88;;;;;;;;;;5100590;28;20495;-86
2021/12/11 09:09:54;;;;;;;5.32;3.70;;;;;;;;;;5093094;28;20052;-87
2021/12/11 09:12:24;;;;;;;5.85;3.75;;;;;;;;;;5087983;28;20484;-86
2021/12/11 09:14:56;;;;;;;6.03;3.72;;;;;;;;;;5092507;28;20086;-92
2021/12/11 09:17:27;;;;;;;6.72;4.03;;;;;;;;;;5091455;28;20133;-86
2021/12/11 09:19:56;;;;;;;5.25;3.70;;;;;;;;;;5092776;28;20472;-86
2021/12/11 09:22:28;;;;;;;5.13;3.13;;;;;;;;;;5088408;28;20044;-87
2021/12/11 09:25:03;;;;;;;5.35;3.00;;;;;;;;;;5087059;28;20148;-86
2021/12/11 09:27:36;;;;;;;5.10;3.70;;;;;;;;;;5090068;28;20048;-85
2021/12/11 09:30:12;;;;;;;5.00;3.17;;;;;;;;;;5097111;28;20071;-87
2021/12/11 09:32:44;;;;;;;5.20;3.33;;;;;;;;;;5097398;28;20066;-87
2021/12/11 09:35:13;;;;;;;5.25;3.28;;;;;;;;;;5092746;28;20040;-86
2021/12/11 09:37:42;;;;;;;6.50;4.53;;;;;;;;;;5089742;28;20043;-87
2021/12/11 09:40:15;;;;;;;12.95;4.38;;;;;;;;;;5093918;28;20540;-87
2021/12/11 09:42:41;;;;;;;6.00;3.85;;;;;;;;;;5095750;28;20079;-86
2021/12/11 09:45:13;;;;;;;6.53;3.75;;;;;;;;;;5093556;28;20045;-86
2021/12/11 09:47:49;;;;;;;5.00;3.53;;;;;;;;;;5088727;28;20094;-86
2021/12/11 09:50:22;;;;;;;6.28;3.83;;;;;;;;;;5093714;28;20501;-86
2021/12/11 09:52:49;;;;;;;6.03;4.20;;;;;;;;;;5099797;28;20090;-86
2021/12/11 09:55:19;;;;;;;6.50;3.88;;;;;;;;;;5094854;28;20044;-86
2021/12/11 09:57:48;;;;;;;4.55;3.38;;;;;;;;;;5100226;28;20408;-86
2021/12/11 10:00:20;;;;;;;5.80;3.53;;;;;;;;;;5095551;28;20044;-86
2021/12/11 10:02:47;;;;;;;4.57;3.05;;;;;;;;;;5094743;28;20511;-86
2021/12/11 10:05:29;;;;;;;7.90;3.50;;;;;;;;;;5094571;28;20080;-86
2021/12/11 10:08:25;;;;;;;5.53;3.97;;;;;;;;;;5096081;28;20051;-86
2021/12/11 10:10:51;;;;;;;4.65;3.08;;;;;;;;;;5074269;28;20052;-84
2021/12/11 10:13:18;;;;;;;5.40;3.42;;;;;;;;;;5091079;28;20071;-87
2021/12/11 10:15:46;;;;;;;4.75;3.25;;;;;;;;;;5089321;28;20139;-85
2021/12/11 10:18:16;;;;;;;5.38;3.40;;;;;;;;;;5088209;28;20084;-88
2021/12/11 10:20:46;;;;;;;8.07;4.63;;;;;;;;;;5085196;28;20055;-87
2021/12/11 10:23:16;;;;;;;4.55;3.53;;;;;;;;;;5090695;28;20056;-86
2021/12/11 10:25:44;;;;;;;7.30;4.00;;;;;;;;;;5091849;28;20048;-86
2021/12/11 10:28:13;;;;;;;6.90;4.20;;;;;;;;;;5057457;28;20055;-87
2021/12/11 10:30:44;;;;;;;6.00;4.32;;;;;;;;;;5092510;28;20083;-87
2021/12/11 10:33:19;;;;;;;7.47;4.28;;;;;;;;;;5092875;28;20058;-88
2021/12/11 10:35:50;;;;;;;7.88;3.83;;;;;;;;;;5093447;28;20097;-88
2021/12/11 10:38:19;;;;;;;5.68;3.80;;;;;;;;;;5095097;28;20040;-87
2021/12/11 10:40:58;;;;;;;7.72;4.72;;;;;;;;;;5067870;28;20048;-87
2021/12/11 10:43:33;;;;;;;5.38;3.97;;;;;;;;;;5102914;28;20059;-87
2021/12/11 10:46:04;;;;;;;6.72;3.90;;;;;;;;;;5082991;28;20079;-87
2021/12/11 10:48:37;;;;;;;6.53;3.58;;;;;;;;;;5109025;28;20069;-87
2021/12/11 10:51:07;;;;;;;7.57;4.10;;;;;;;;;;5069478;28;20393;-87
2021/12/11 10:53:35;;;;;;;4.75;3.30;;;;;;;;;;5102410;28;20052;-87
2021/12/11 10:56:05;;;;;;;6.45;3.42;;;;;;;;;;5098024;28;20429;-87
2021/12/11 10:58:35;;;;;;;4.38;3.22;;;;;;;;;;5100647;28;20044;-88
2021/12/11 11:01:08;;;;;;;4.75;3.25;;;;;;;;;;5103691;28;20044;-88
2021/12/11 11:03:48;;;;;;;6.78;4.10;;;;;;;;;;5085222;28;20060;-88
2021/12/11 11:06:20;;;;;;;6.43;3.67;;;;;;;;;;5089548;28;20508;-88
2021/12/11 11:08:48;;;;;;;4.90;3.28;;;;;;;;;;5094994;28;20054;-87
2021/12/11 11:11:17;;;;;;;7.93;4.43;;;;;;;;;;5100641;28;20052;-88
2021/12/11 11:13:46;;;;;;;5.88;4.40;;;;;;;;;;5106440;28;20067;-87
2021/12/11 11:16:12;;;;;;;6.50;4.50;;;;;;;;;;5104215;28;20113;-88
2021/12/11 11:18:41;;;;;;;6.15;4.53;;;;;;;;;;5099864;28;20051;-88
2021/12/11 11:21:11;;;;;;;8.93;4.63;;;;;;;;;;5103760;28;20056;-88
2021/12/11 11:23:40;;;;;;;5.80;4.25;;;;;;;;;;5110082;28;20090;-87
2021/12/11 11:26:10;;;;;;;6.45;4.13;;;;;;;;;;5099727;28;20048;-87
2021/12/11 11:28:39;;;;;;;7.00;4.93;;;;;;;;;;5106753;28;20070;-87
2021/12/11 11:31:08;;;;;;;6.60;4.38;;;;;;;;;;5099538;28;20051;-88
2021/12/11 11:33:35;;;;;;;6.22;4.18;;;;;;;;;;5099427;28;20090;-87
2021/12/11 11:36:07;;;;;;;6.93;4.32;;;;;;;;;;5099833;28;20446;-87
2021/12/11 11:38:36;;;;;;;6.65;4.32;;;;;;;;;;5099681;28;20074;-87
2021/12/11 11:41:07;;;;;;;8.55;4.00;;;;;;;;;;5099174;28;20264;-88
2021/12/11 11:43:33;;;;;;;7.47;4.50;;;;;;;;;;5101298;28;20101;-88
2021/12/11 11:46:00;;;;;;;7.43;4.05;;;;;;;;;;5101113;28;20112;-87
2021/12/11 11:48:29;;;;;;;8.13;4.68;;;;;;;;;;5102436;28;20051;-88
2021/12/11 11:50:58;;;;;;;7.75;4.40;;;;;;;;;;5098632;28;20040;-88
2021/12/11 11:53:26;;;;;;;8.52;5.18;;;;;;;;;;5097591;28;20047;-88
2021/12/11 11:55:57;;;;;;;7.13;4.88;;;;;;;;;;5097877;28;20051;-88
2021/12/11 11:58:27;;;;;;;8.63;5.75;;;;;;;;;;5104524;28;20044;-88
2021/12/11 12:00:57;;;;;;;6.88;4.68;;;;;;;;;;5106099;28;20511;-87
2021/12/11 12:03:28;;;;;;;8.32;5.45;;;;;;;;;;5093302;28;20052;-88
2021/12/11 12:06:00;;;;;;;9.63;5.07;;;;;;;;;;5098532;28;20044;-88
2021/12/11 12:08:29;;;;;;;6.82;4.95;;;;;;;;;;5100843;28;20044;-88
2021/12/11 12:10:57;;;;;;;8.13;5.20;;;;;;;;;;5089642;28;20044;-89
2021/12/11 12:13:26;;;;;;;7.82;4.75;;;;;;;;;;5100231;28;20108;-89
2021/12/11 12:16:04;;;;;;;9.88;6.00;;;;;;;;;;5093141;28;20492;-87
2021/12/11 12:18:32;;;;;;;8.10;4.90;;;;;;;;;;5092425;28;20044;-89
2021/12/11 12:21:00;;;;;;;10.63;5.38;;;;;;;;;;5093417;28;20048;-86
2021/12/11 12:23:31;;;;;;;10.98;7.00;;;;;;;;;;5083138;28;20047;-86
2021/12/11 12:26:01;;;;;;;10.32;7.18;;;;;;;;;;5094530;28;20043;-89
2021/12/11 12:28:28;;;;;;;15.55;6.65;;;;;;;;;;5095549;28;20495;-87
2021/12/11 12:31:03;;;;;;;11.27;7.00;;;;;;;;;;5105036;28;20713;-88
2021/12/11 12:33:30;;;;;;;9.75;6.72;;;;;;;;;;5098529;28;20507;-87
2021/12/11 12:35:57;;;;;;;13.13;7.70;;;;;;;;;;5099701;28;20108;-87
2021/12/11 12:38:26;;;;;;;9.95;6.60;;;;;;;;;;5092612;28;20082;-88
2021/12/11 12:41:00;;;;;;;10.13;6.82;;;;;;;;;;5094481;28;20078;-88
2021/12/11 12:43:55;;;;;;;10.75;7.45;;;;;;;;;;5095894;28;20066;-88
2021/12/11 12:46:25;;;;;;;14.02;8.95;;;;;;;;;;5104092;28;20079;-88
2021/12/11 12:48:52;;;;;;;13.30;8.63;;;;;;;;;;5095584;28;20044;-89
2021/12/11 12:51:19;;;;;;;12.70;8.45;;;;;;;;;;5092824;28;20090;-88
2021/12/11 12:53:47;;;;;;;12.65;8.43;;;;;;;;;;5094172;28;20055;-88
2021/12/11 12:56:20;;;;;;;14.50;9.15;;;;;;;;;;5093753;28;20044;-88
2021/12/11 12:58:52;;;;;;;12.80;8.88;;;;;;;;;;5067085;28;20624;-88
2021/12/11 13:01:24;;;;;;;15.75;8.55;;;;;;;;;;5094146;28;20074;-88
2021/12/11 13:03:53;;;;;;;20.73;11.07;;;;;;;;;;5079766;28;20082;-88
2021/12/11 13:06:24;;;;;;;16.00;10.02;;;;;;;;;;5059579;28;20044;-89
2021/12/11 13:08:55;;;;;;;21.95;12.70;;;;;;;;;;5097403;28;20387;-86
2021/12/11 13:11:27;;;;;;;19.40;11.55;;;;;;;;;;5096562;28;20124;-90
2021/12/11 13:14:00;;;;;;;20.10;11.48;;;;;;;;;;5095224;28;20455;-88
2021/12/11 13:16:32;;;;;;;16.92;10.88;;;;;;;;;;5096857;28;20059;-87
2021/12/11 13:19:05;;;;;;;16.95;10.75;;;;;;;;;;5082939;28;20048;-88
2021/12/11 13:21:39;;;;;;;17.00;10.52;;;;;;;;;;5077696;28;20074;-88
2021/12/11 13:24:09;;;;;;;17.92;10.80;;;;;;;;;;5076175;28;20502;-87
2021/12/11 13:26:46;;;;;;;17.20;9.88;;;;;;;;;;5090746;28;20113;-87
2021/12/11 13:29:16;;;;;;;16.17;10.65;;;;;;;;;;5081457;28;20048;-88
2021/12/11 13:31:45;;;;;;;23.73;13.07;;;;;;;;;;5082051;28;20105;-88
2021/12/11 13:34:13;;;;;;;32.80;15.15;;;;;;;;;;5072875;28;20054;-89
2021/12/11 13:36:41;;;;;;;29.80;14.63;;;;;;;;;;5090897;28;20078;-88
2021/12/11 13:39:10;;;;;;;26.83;13.35;;;;;;;;;;5105295;28;20452;-88
2021/12/11 13:41:41;;;;;;;44.85;20.48;;;;;;;;;;5092397;28;20048;-86
2021/12/11 13:44:10;;;;;;;61.35;26.70;;;;;;;;;;5093299;28;20086;-88
2021/12/11 13:46:37;;;;;;;53.92;22.83;;;;;;;;;;5092299;28;20108;-88
2021/12/11 13:49:06;;;;;;;33.30;16.83;;;;;;;;;;5077060;28;20069;-89
2021/12/11 13:51:38;;;;;;;31.98;19.42;;;;;;;;;;5073563;28;20112;-88
2021/12/11 13:54:07;;;;;;;24.80;14.50;;;;;;;;;;5075779;28;20048;-88
2021/12/11 13:56:43;;;;;;;20.55;13.43;;;;;;;;;;5094521;28;20122;-89
2021/12/11 13:59:11;;;;;;;19.27;12.80;;;;;;;;;;5092842;28;20071;-89
2021/12/11 14:01:40;;;;;;;19.42;12.10;;;;;;;;;;5088818;28;20500;-89
2021/12/11 14:04:09;;;;;;;18.77;11.82;;;;;;;;;;5088132;28;20462;-88
2021/12/11 14:06:47;;;;;;;16.63;11.23;;;;;;;;;;5087364;28;20040;-88
2021/12/11 14:09:14;;;;;;;18.30;10.98;;;;;;;;;;5090268;28;20484;-88
2021/12/11 14:11:41;;;;;;;20.48;12.95;;;;;;;;;;5089024;28;20485;-89
2021/12/11 14:14:10;;;;;;;19.95;12.30;;;;;;;;;;5087364;28;20088;-89
2021/12/11 14:16:38;;;;;;;19.30;12.27;;;;;;;;;;5089753;28;20040;-89
2021/12/11 14:19:06;;;;;;;32.08;13.75;;;;;;;;;;5088093;28;20079;-89
2021/12/11 14:21:34;;;;;;;20.08;12.20;;;;;;;;;;5088024;28;20066;-89
2021/12/11 14:24:01;;;;;;;23.60;13.55;;;;;;;;;;5093685;28;20058;-88
2021/12/11 14:26:29;;;;;;;24.92;13.18;;;;;;;;;;5093677;28;20054;-88
2021/12/11 14:28:57;;;;;;;22.25;13.40;;;;;;;;;;5097026;28;20050;-88
2021/12/11 14:31:26;;;;;;;25.70;12.85;;;;;;;;;;5095625;28;20048;-88
2021/12/11 14:33:54;;;;;;;21.83;13.80;;;;;;;;;;5091971;28;20056;-90
2021/12/11 14:36:23;;;;;;;20.27;13.00;;;;;;;;;;5089524;28;20140;-89
2021/12/11 14:38:51;;;;;;;25.73;14.13;;;;;;;;;;5094047;28;20098;-88
2021/12/11 14:41:19;;;;;;;24.80;14.65;;;;;;;;;;5093719;28;20047;-88
2021/12/11 14:43:47;;;;;;;24.77;13.32;;;;;;;;;;5078757;28;20533;-89
2021/12/11 14:46:15;;;;;;;22.30;13.18;;;;;;;;;;5094926;28;20048;-89
2021/12/11 14:48:45;;;;;;;21.17;13.15;;;;;;;;;;5092900;28;20116;-89
2021/12/11 14:51:21;;;;;;;20.83;12.50;;;;;;;;;;5076642;28;20125;-91
2021/12/11 14:53:50;;;;;;;21.20;12.60;;;;;;;;;;5071379;28;20040;-89